sensor_id;sensor_type;location;lat;lon;timestamp;pressure;altitude;pressure_sealevel;temperature;humidity
47811;BME280;33575;52.600;7.318;2023-04-27T00:02:19;101885.48;;;3.47;81.89
47811;BME280;33575;52.600;7.318;2023-04-27T00:04:50;101885.70;;;3.45;81.36
47811;BME280;33575;52.600;7.318;2023-04-27T00:07:21;101882.38;;;3.42;82.32
47811;BME280;33575;52.600;7.318;2023-04-27T00:09:52;101882.08;;;3.40;81.56
47811;BME280;33575;52.600;7.318;2023-04-27T00:12:22;101882.38;;;3.39;81.87
47811;BME280;33575;52.600;7.318;2023-04-27T00:14:54;101886.13;;;3.37;82.07
47811;BME280;33575;52.600;7.318;2023-04-27T00:17:24;101886.29;;;3.38;81.75
47811;BME280;33575;52.600;7.318;2023-04-27T00:19:55;101888.30;;;3.39;81.56
47811;BME280;33575;52.600;7.318;2023-04-27T00:22:25;101890.08;;;3.36;82.05
47811;BME280;33575;52.600;7.318;2023-04-27T00:24:56;101889.81;;;3.36;81.97
47811;BME280;33575;52.600;7.318;2023-04-27T00:27:27;101890.66;;;3.34;82.46
47811;BME280;33575;52.600;7.318;2023-04-27T00:29:58;101890.78;;;3.32;81.58
47811;BME280;33575;52.600;7.318;2023-04-27T00:32:29;101892.07;;;3.30;82.29
47811;BME280;33575;52.600;7.318;2023-04-27T00:34:59;101896.53;;;3.28;81.96
47811;BME280;33575;52.600;7.318;2023-04-27T00:37:30;101898.60;;;3.26;82.01
47811;BME280;33575;52.600;7.318;2023-04-27T00:40:03;101899.61;;;3.23;82.36
47811;BME280;33575;52.600;7.318;2023-04-27T00:42:32;101900.05;;;3.23;81.70
47811;BME280;33575;52.600;7.318;2023-04-27T00:45:03;101899.04;;;3.20;81.23
47811;BME280;33575;52.600;7.318;2023-04-27T00:47:33;101900.60;;;3.18;80.98
47811;BME280;33575;52.600;7.318;2023-04-27T00:50:04;101901.01;;;3.16;80.52
47811;BME280;33575;52.600;7.318;2023-04-27T00:52:35;101903.64;;;3.14;81.20
47811;BME280;33575;52.600;7.318;2023-04-27T00:55:06;101899.04;;;3.14;81.30
47811;BME280;33575;52.600;7.318;2023-04-27T00:57:36;101902.47;;;3.13;81.11
47811;BME280;33575;52.600;7.318;2023-04-27T01:00:07;101906.57;;;3.12;80.99
47811;BME280;33575;52.600;7.318;2023-04-27T01:02:38;101912.62;;;3.11;80.73
47811;BME280;33575;52.600;7.318;2023-04-27T01:05:08;101914.15;;;3.09;80.31
47811;BME280;33575;52.600;7.318;2023-04-27T01:07:39;101914.23;;;3.03;80.83
47811;BME280;33575;52.600;7.318;2023-04-27T01:10:10;101916.37;;;2.99;80.75
47811;BME280;33575;52.600;7.318;2023-04-27T01:12:40;101914.65;;;2.98;81.21
47811;BME280;33575;52.600;7.318;2023-04-27T01:15:11;101914.66;;;3.00;81.73
47811;BME280;33575;52.600;7.318;2023-04-27T01:17:42;101912.12;;;3.08;86.57
47811;BME280;33575;52.600;7.318;2023-04-27T01:20:12;101913.16;;;2.97;84.30
47811;BME280;33575;52.600;7.318;2023-04-27T01:22:43;101912.34;;;2.73;83.35
47811;BME280;33575;52.600;7.318;2023-04-27T01:25:14;101914.72;;;2.47;83.53
47811;BME280;33575;52.600;7.318;2023-04-27T01:27:44;101915.15;;;2.31;83.24
47811;BME280;33575;52.600;7.318;2023-04-27T01:30:15;101914.69;;;2.16;84.17
47811;BME280;33575;52.600;7.318;2023-04-27T01:32:46;101914.32;;;2.04;84.43
47811;BME280;33575;52.600;7.318;2023-04-27T01:35:17;101911.07;;;1.92;85.10
47811;BME280;33575;52.600;7.318;2023-04-27T01:37:47;101912.30;;;1.82;85.30
47811;BME280;33575;52.600;7.318;2023-04-27T01:40:18;101912.21;;;1.74;86.10
47811;BME280;33575;52.600;7.318;2023-04-27T01:42:49;101914.30;;;1.69;85.90
47811;BME280;33575;52.600;7.318;2023-04-27T01:45:19;101912.02;;;1.69;85.66
47811;BME280;33575;52.600;7.318;2023-04-27T01:47:50;101908.58;;;1.69;86.07
47811;BME280;33575;52.600;7.318;2023-04-27T01:50:20;101907.05;;;1.72;86.03
47811;BME280;33575;52.600;7.318;2023-04-27T01:52:50;101909.28;;;1.73;85.95
47811;BME280;33575;52.600;7.318;2023-04-27T01:55:20;101909.96;;;1.77;85.75
47811;BME280;33575;52.600;7.318;2023-04-27T01:57:51;101910.49;;;1.79;85.87
47811;BME280;33575;52.600;7.318;2023-04-27T02:00:21;101913.30;;;1.82;85.74
47811;BME280;33575;52.600;7.318;2023-04-27T02:02:52;101914.97;;;1.84;85.44
47811;BME280;33575;52.600;7.318;2023-04-27T02:05:23;101916.43;;;1.87;85.34
47811;BME280;33575;52.600;7.318;2023-04-27T02:07:54;101919.97;;;1.88;84.93
47811;BME280;33575;52.600;7.318;2023-04-27T02:10:25;101923.79;;;1.89;85.07
47811;BME280;33575;52.600;7.318;2023-04-27T02:12:55;101925.95;;;1.92;84.97
47811;BME280;33575;52.600;7.318;2023-04-27T02:15:25;101926.10;;;1.93;84.84
47811;BME280;33575;52.600;7.318;2023-04-27T02:17:55;101927.46;;;1.94;84.90
47811;BME280;33575;52.600;7.318;2023-04-27T02:20:29;101928.56;;;1.95;84.79
47811;BME280;33575;52.600;7.318;2023-04-27T02:22:57;101927.28;;;1.94;84.53
47811;BME280;33575;52.600;7.318;2023-04-27T02:25:27;101929.08;;;1.91;85.00
47811;BME280;33575;52.600;7.318;2023-04-27T02:27:57;101928.73;;;1.89;85.16
47811;BME280;33575;52.600;7.318;2023-04-27T02:30:28;101926.85;;;1.86;84.98
47811;BME280;33575;52.600;7.318;2023-04-27T02:32:58;101926.95;;;1.84;84.77
47811;BME280;33575;52.600;7.318;2023-04-27T02:35:29;101931.09;;;1.81;84.13
47811;BME280;33575;52.600;7.318;2023-04-27T02:38:00;101935.60;;;1.79;84.27
47811;BME280;33575;52.600;7.318;2023-04-27T02:40:31;101935.97;;;1.76;84.30
47811;BME280;33575;52.600;7.318;2023-04-27T02:43:02;101933.19;;;1.73;84.60
47811;BME280;33575;52.600;7.318;2023-04-27T02:45:36;101931.18;;;1.68;85.26
47811;BME280;33575;52.600;7.318;2023-04-27T02:48:04;101927.51;;;1.66;84.62
47811;BME280;33575;52.600;7.318;2023-04-27T02:50:39;101925.75;;;1.64;84.61
47811;BME280;33575;52.600;7.318;2023-04-27T02:53:05;101922.55;;;1.60;84.59
47811;BME280;33575;52.600;7.318;2023-04-27T02:55:36;101923.15;;;1.60;83.93
47811;BME280;33575;52.600;7.318;2023-04-27T02:58:06;101923.10;;;1.58;83.40
47811;BME280;33575;52.600;7.318;2023-04-27T03:00:36;101918.13;;;1.60;83.48
47811;BME280;33575;52.600;7.318;2023-04-27T03:03:07;101916.66;;;1.61;83.77
47811;BME280;33575;52.600;7.318;2023-04-27T03:05:37;101920.20;;;1.66;83.46
47811;BME280;33575;52.600;7.318;2023-04-27T03:08:07;101917.57;;;1.69;83.49
47811;BME280;33575;52.600;7.318;2023-04-27T03:10:37;101914.42;;;1.74;83.41
47811;BME280;33575;52.600;7.318;2023-04-27T03:13:08;101910.13;;;1.76;83.41
47811;BME280;33575;52.600;7.318;2023-04-27T03:15:39;101904.91;;;1.74;83.31
47811;BME280;33575;52.600;7.318;2023-04-27T03:18:10;101909.63;;;1.70;82.75
47811;BME280;33575;52.600;7.318;2023-04-27T03:20:41;101911.29;;;1.65;83.04
47811;BME280;33575;52.600;7.318;2023-04-27T03:23:11;101915.55;;;1.61;81.49
47811;BME280;33575;52.600;7.318;2023-04-27T03:25:42;101914.30;;;1.47;81.28
47811;BME280;33575;52.600;7.318;2023-04-27T03:28:12;101910.61;;;1.41;81.33
47811;BME280;33575;52.600;7.318;2023-04-27T03:30:42;101908.84;;;1.38;82.69
47811;BME280;33575;52.600;7.318;2023-04-27T03:33:13;101909.50;;;1.43;83.45
47811;BME280;33575;52.600;7.318;2023-04-27T03:35:43;101906.30;;;1.62;92.67
47811;BME280;33575;52.600;7.318;2023-04-27T03:38:13;101908.96;;;1.64;87.67
47811;BME280;33575;52.600;7.318;2023-04-27T03:40:43;101908.59;;;1.54;85.60
47811;BME280;33575;52.600;7.318;2023-04-27T03:43:13;101908.73;;;1.35;85.20
47811;BME280;33575;52.600;7.318;2023-04-27T03:45:45;101910.72;;;1.22;84.19
47811;BME280;33575;52.600;7.318;2023-04-27T03:48:15;101907.16;;;1.07;84.76
47811;BME280;33575;52.600;7.318;2023-04-27T03:50:45;101912.41;;;0.98;84.87
47811;BME280;33575;52.600;7.318;2023-04-27T03:53:15;101919.86;;;0.86;85.00
47811;BME280;33575;52.600;7.318;2023-04-27T03:55:46;101918.49;;;0.79;84.79
47811;BME280;33575;52.600;7.318;2023-04-27T03:58:16;101917.56;;;0.71;85.54
47811;BME280;33575;52.600;7.318;2023-04-27T04:00:46;101919.85;;;0.67;86.01
47811;BME280;33575;52.600;7.318;2023-04-27T04:03:17;101918.85;;;0.65;86.37
47811;BME280;33575;52.600;7.318;2023-04-27T04:05:47;101921.93;;;0.69;86.09
47811;BME280;33575;52.600;7.318;2023-04-27T04:08:17;101921.32;;;0.74;86.29
47811;BME280;33575;52.600;7.318;2023-04-27T04:10:47;101921.84;;;0.79;86.48
47811;BME280;33575;52.600;7.318;2023-04-27T04:13:18;101918.79;;;0.85;86.24
47811;BME280;33575;52.600;7.318;2023-04-27T04:15:48;101921.69;;;0.88;86.24
47811;BME280;33575;52.600;7.318;2023-04-27T04:18:18;101921.50;;;0.90;86.11
47811;BME280;33575;52.600;7.318;2023-04-27T04:20:49;101926.47;;;0.92;85.83
47811;BME280;33575;52.600;7.318;2023-04-27T04:23:20;101928.68;;;0.94;85.90
47811;BME280;33575;52.600;7.318;2023-04-27T04:25:51;101927.40;;;0.95;85.63
47811;BME280;33575;52.600;7.318;2023-04-27T04:28:21;101927.67;;;0.96;84.96
47811;BME280;33575;52.600;7.318;2023-04-27T04:30:51;101933.22;;;0.96;85.39
47811;BME280;33575;52.600;7.318;2023-04-27T04:33:22;101928.41;;;0.98;85.15
47811;BME280;33575;52.600;7.318;2023-04-27T04:35:53;101928.43;;;0.99;85.63
47811;BME280;33575;52.600;7.318;2023-04-27T04:38:24;101926.24;;;1.02;85.68
47811;BME280;33575;52.600;7.318;2023-04-27T04:40:54;101926.48;;;1.00;85.54
47811;BME280;33575;52.600;7.318;2023-04-27T04:43:24;101921.74;;;0.99;85.68
47811;BME280;33575;52.600;7.318;2023-04-27T04:45:54;101925.41;;;1.00;85.92
47811;BME280;33575;52.600;7.318;2023-04-27T04:48:25;101928.18;;;1.03;85.80
47811;BME280;33575;52.600;7.318;2023-04-27T04:50:56;101930.76;;;1.07;85.56
47811;BME280;33575;52.600;7.318;2023-04-27T04:53:27;101931.05;;;1.10;85.66
47811;BME280;33575;52.600;7.318;2023-04-27T04:56:06;101935.09;;;1.14;85.99
47811;BME280;33575;52.600;7.318;2023-04-27T04:58:27;101934.89;;;1.15;86.18
47811;BME280;33575;52.600;7.318;2023-04-27T05:00:58;101937.02;;;1.18;86.07
47811;BME280;33575;52.600;7.318;2023-04-27T05:03:29;101939.26;;;1.24;85.96
47811;BME280;33575;52.600;7.318;2023-04-27T05:05:59;101942.78;;;1.32;85.50
47811;BME280;33575;52.600;7.318;2023-04-27T05:08:29;101940.76;;;1.37;85.21
47811;BME280;33575;52.600;7.318;2023-04-27T05:11:00;101945.43;;;1.44;85.11
47811;BME280;33575;52.600;7.318;2023-04-27T05:13:31;101945.89;;;1.48;84.98
47811;BME280;33575;52.600;7.318;2023-04-27T05:16:03;101952.39;;;1.53;84.89
47811;BME280;33575;52.600;7.318;2023-04-27T05:18:31;101953.11;;;1.58;85.00
47811;BME280;33575;52.600;7.318;2023-04-27T05:21:02;101958.32;;;1.66;85.21
47811;BME280;33575;52.600;7.318;2023-04-27T05:23:32;101958.60;;;1.73;85.01
47811;BME280;33575;52.600;7.318;2023-04-27T05:26:11;101958.60;;;1.76;85.28
47811;BME280;33575;52.600;7.318;2023-04-27T05:28:33;101965.15;;;1.78;85.71
47811;BME280;33575;52.600;7.318;2023-04-27T05:31:03;101962.23;;;1.82;85.81
47811;BME280;33575;52.600;7.318;2023-04-27T05:33:33;101961.85;;;1.85;86.06
47811;BME280;33575;52.600;7.318;2023-04-27T05:36:04;101966.87;;;1.91;86.26
47811;BME280;33575;52.600;7.318;2023-04-27T05:38:34;101973.28;;;1.96;86.73
47811;BME280;33575;52.600;7.318;2023-04-27T05:41:04;101976.99;;;2.00;86.53
47811;BME280;33575;52.600;7.318;2023-04-27T05:43:35;101983.00;;;2.05;86.88
47811;BME280;33575;52.600;7.318;2023-04-27T05:46:05;101986.47;;;2.10;87.15
47811;BME280;33575;52.600;7.318;2023-04-27T05:48:36;101984.35;;;2.15;87.70
47811;BME280;33575;52.600;7.318;2023-04-27T05:51:06;101988.66;;;2.22;88.73
47811;BME280;33575;52.600;7.318;2023-04-27T05:53:36;101987.22;;;2.38;93.88
47811;BME280;33575;52.600;7.318;2023-04-27T05:56:07;101987.84;;;2.38;92.56
47811;BME280;33575;52.600;7.318;2023-04-27T05:58:38;101985.98;;;2.32;91.83
47811;BME280;33575;52.600;7.318;2023-04-27T06:01:09;101987.84;;;2.32;90.62
47811;BME280;33575;52.600;7.318;2023-04-27T06:03:40;101986.50;;;2.30;90.94
47811;BME280;33575;52.600;7.318;2023-04-27T06:06:10;101988.21;;;2.31;91.82
47811;BME280;33575;52.600;7.318;2023-04-27T06:08:41;101986.20;;;2.36;92.21
47811;BME280;33575;52.600;7.318;2023-04-27T06:11:11;101986.19;;;2.45;92.99
47811;BME280;33575;52.600;7.318;2023-04-27T06:13:41;101985.42;;;2.58;92.80
47811;BME280;33575;52.600;7.318;2023-04-27T06:16:12;101985.14;;;2.72;92.41
47811;BME280;33575;52.600;7.318;2023-04-27T06:18:42;101983.24;;;2.85;92.36
47811;BME280;33575;52.600;7.318;2023-04-27T06:21:13;101982.26;;;2.97;92.48
47811;BME280;33575;52.600;7.318;2023-04-27T06:23:43;101981.05;;;3.08;92.60
47811;BME280;33575;52.600;7.318;2023-04-27T06:26:14;101984.69;;;3.22;91.70
47811;BME280;33575;52.600;7.318;2023-04-27T06:28:44;101990.11;;;3.30;92.91
47811;BME280;33575;52.600;7.318;2023-04-27T06:31:15;101991.59;;;3.42;92.20
47811;BME280;33575;52.600;7.318;2023-04-27T06:33:45;101993.53;;;3.55;91.83
47811;BME280;33575;52.600;7.318;2023-04-27T06:36:16;101993.74;;;3.65;92.29
47811;BME280;33575;52.600;7.318;2023-04-27T06:38:46;101992.58;;;3.77;92.23
47811;BME280;33575;52.600;7.318;2023-04-27T06:41:17;101990.45;;;3.86;92.84
47811;BME280;33575;52.600;7.318;2023-04-27T06:43:47;101989.68;;;4.00;92.55
47811;BME280;33575;52.600;7.318;2023-04-27T06:46:19;101990.89;;;4.13;92.01
47811;BME280;33575;52.600;7.318;2023-04-27T06:48:49;101992.11;;;4.26;91.25
47811;BME280;33575;52.600;7.318;2023-04-27T06:51:19;101988.03;;;4.34;91.21
47811;BME280;33575;52.600;7.318;2023-04-27T06:53:51;101986.52;;;4.42;90.51
47811;BME280;33575;52.600;7.318;2023-04-27T06:56:21;101988.56;;;4.54;90.48
47811;BME280;33575;52.600;7.318;2023-04-27T06:58:51;101987.65;;;4.63;90.33
47811;BME280;33575;52.600;7.318;2023-04-27T07:01:22;101987.98;;;4.70;90.19
47811;BME280;33575;52.600;7.318;2023-04-27T07:03:53;101986.48;;;4.76;89.94
47811;BME280;33575;52.600;7.318;2023-04-27T07:06:24;101978.84;;;4.78;90.32
47811;BME280;33575;52.600;7.318;2023-04-27T07:08:54;101975.57;;;4.80;90.52
47811;BME280;33575;52.600;7.318;2023-04-27T07:11:25;101977.91;;;4.85;91.37
47811;BME280;33575;52.600;7.318;2023-04-27T07:13:55;101978.93;;;4.93;89.96
47811;BME280;33575;52.600;7.318;2023-04-27T07:16:26;101980.25;;;5.00;90.37
47811;BME280;33575;52.600;7.318;2023-04-27T07:18:56;101981.63;;;5.09;89.21
47811;BME280;33575;52.600;7.318;2023-04-27T07:21:27;101983.44;;;5.19;88.88
47811;BME280;33575;52.600;7.318;2023-04-27T07:23:58;101982.73;;;5.28;89.03
47811;BME280;33575;52.600;7.318;2023-04-27T07:26:28;101979.64;;;5.42;88.70
47811;BME280;33575;52.600;7.318;2023-04-27T07:28:58;101977.90;;;5.54;89.15
47811;BME280;33575;52.600;7.318;2023-04-27T07:31:29;101976.10;;;5.61;88.46
47811;BME280;33575;52.600;7.318;2023-04-27T07:34:00;101971.57;;;5.68;88.82
47811;BME280;33575;52.600;7.318;2023-04-27T07:36:30;101976.96;;;5.79;88.02
47811;BME280;33575;52.600;7.318;2023-04-27T07:39:01;101973.71;;;5.91;86.83
47811;BME280;33575;52.600;7.318;2023-04-27T07:41:31;101977.18;;;5.98;87.51
47811;BME280;33575;52.600;7.318;2023-04-27T07:44:02;101976.10;;;6.09;87.66
47811;BME280;33575;52.600;7.318;2023-04-27T07:46:33;101973.63;;;6.19;86.63
47811;BME280;33575;52.600;7.318;2023-04-27T07:49:04;101971.57;;;6.34;86.91
47811;BME280;33575;52.600;7.318;2023-04-27T07:51:34;101978.18;;;6.46;86.30
47811;BME280;33575;52.600;7.318;2023-04-27T07:54:05;101977.13;;;6.51;84.76
47811;BME280;33575;52.600;7.318;2023-04-27T07:56:35;101973.68;;;6.59;84.00
47811;BME280;33575;52.600;7.318;2023-04-27T07:59:06;101971.33;;;6.71;84.05
47811;BME280;33575;52.600;7.318;2023-04-27T08:01:37;101963.68;;;6.83;84.42
47811;BME280;33575;52.600;7.318;2023-04-27T08:04:08;101966.60;;;6.86;84.66
47811;BME280;33575;52.600;7.318;2023-04-27T08:06:39;101962.29;;;6.90;83.75
47811;BME280;33575;52.600;7.318;2023-04-27T08:09:08;101958.13;;;6.92;82.99
47811;BME280;33575;52.600;7.318;2023-04-27T08:11:39;101962.98;;;6.98;83.69
47811;BME280;33575;52.600;7.318;2023-04-27T08:14:10;101966.14;;;7.01;82.99
47811;BME280;33575;52.600;7.318;2023-04-27T08:16:41;101966.17;;;7.13;82.45
47811;BME280;33575;52.600;7.318;2023-04-27T08:19:11;101965.04;;;7.21;80.78
47811;BME280;33575;52.600;7.318;2023-04-27T08:21:41;101968.64;;;7.24;81.36
47811;BME280;33575;52.600;7.318;2023-04-27T08:24:12;101971.79;;;7.35;80.51
47811;BME280;33575;52.600;7.318;2023-04-27T08:26:43;101970.42;;;7.43;78.70
47811;BME280;33575;52.600;7.318;2023-04-27T08:29:18;101978.53;;;7.59;80.59
47811;BME280;33575;52.600;7.318;2023-04-27T08:31:44;101980.47;;;7.73;80.47
47811;BME280;33575;52.600;7.318;2023-04-27T08:34:15;101978.74;;;7.84;80.11
47811;BME280;33575;52.600;7.318;2023-04-27T08:36:45;101977.32;;;7.96;79.30
47811;BME280;33575;52.600;7.318;2023-04-27T08:39:16;101979.38;;;8.07;79.20
47811;BME280;33575;52.600;7.318;2023-04-27T08:41:47;101978.72;;;8.21;79.09
47811;BME280;33575;52.600;7.318;2023-04-27T08:44:17;101977.69;;;8.32;77.63
47811;BME280;33575;52.600;7.318;2023-04-27T08:46:49;101974.74;;;8.28;78.15
47811;BME280;33575;52.600;7.318;2023-04-27T08:49:19;101972.41;;;8.42;78.34
47811;BME280;33575;52.600;7.318;2023-04-27T08:51:49;101968.45;;;8.52;76.45
47811;BME280;33575;52.600;7.318;2023-04-27T08:54:20;101966.64;;;8.57;76.65
47811;BME280;33575;52.600;7.318;2023-04-27T08:56:50;101967.59;;;8.61;78.15
47811;BME280;33575;52.600;7.318;2023-04-27T08:59:21;101971.36;;;8.75;77.16
47811;BME280;33575;52.600;7.318;2023-04-27T09:01:52;101972.82;;;8.89;78.68
47811;BME280;33575;52.600;7.318;2023-04-27T09:04:22;101976.61;;;9.03;77.42
47811;BME280;33575;52.600;7.318;2023-04-27T09:06:53;101967.83;;;9.14;77.24
47811;BME280;33575;52.600;7.318;2023-04-27T09:09:23;101970.12;;;9.25;75.52
47811;BME280;33575;52.600;7.318;2023-04-27T09:11:54;101974.22;;;9.34;74.79
47811;BME280;33575;52.600;7.318;2023-04-27T09:14:24;101971.53;;;9.46;75.85
47811;BME280;33575;52.600;7.318;2023-04-27T09:16:56;101972.39;;;9.57;74.83
47811;BME280;33575;52.600;7.318;2023-04-27T09:19:27;101966.73;;;9.63;71.42
47811;BME280;33575;52.600;7.318;2023-04-27T09:22:02;101966.99;;;9.74;73.01
47811;BME280;33575;52.600;7.318;2023-04-27T09:24:26;101962.48;;;9.64;68.80
47811;BME280;33575;52.600;7.318;2023-04-27T09:26:59;101959.73;;;9.69;70.74
47811;BME280;33575;52.600;7.318;2023-04-27T09:29:32;101960.02;;;9.76;71.20
47811;BME280;33575;52.600;7.318;2023-04-27T09:31:58;101957.34;;;9.76;69.36
47811;BME280;33575;52.600;7.318;2023-04-27T09:36:59;101943.54;;;9.54;65.06
47811;BME280;33575;52.600;7.318;2023-04-27T09:39:29;101944.81;;;9.54;67.44
47811;BME280;33575;52.600;7.318;2023-04-27T09:42:00;101950.60;;;9.60;65.13
47811;BME280;33575;52.600;7.318;2023-04-27T09:44:30;101949.20;;;9.72;65.41
47811;BME280;33575;52.600;7.318;2023-04-27T09:47:01;101948.03;;;9.83;67.73
47811;BME280;33575;52.600;7.318;2023-04-27T09:49:33;101950.38;;;10.05;69.32
47811;BME280;33575;52.600;7.318;2023-04-27T09:52:02;101948.02;;;9.85;62.28
47811;BME280;33575;52.600;7.318;2023-04-27T09:54:33;101953.14;;;9.97;63.23
47811;BME280;33575;52.600;7.318;2023-04-27T09:57:11;101956.97;;;10.11;64.36
47811;BME280;33575;52.600;7.318;2023-04-27T09:59:47;101956.17;;;10.35;65.73
47811;BME280;33575;52.600;7.318;2023-04-27T10:02:10;101954.36;;;10.50;63.61
47811;BME280;33575;52.600;7.318;2023-04-27T10:04:47;101951.88;;;10.79;63.04
47811;BME280;33575;52.600;7.318;2023-04-27T10:07:07;101952.55;;;11.17;66.67
47811;BME280;33575;52.600;7.318;2023-04-27T10:09:39;101956.79;;;11.28;64.72
47811;BME280;33575;52.600;7.318;2023-04-27T10:12:12;101954.96;;;11.04;60.49
47811;BME280;33575;52.600;7.318;2023-04-27T10:17:10;101948.22;;;10.85;62.41
47811;BME280;33575;52.600;7.318;2023-04-27T10:19:37;101952.11;;;10.77;60.90
47811;BME280;33575;52.600;7.318;2023-04-27T10:22:08;101951.63;;;10.69;60.60
47811;BME280;33575;52.600;7.318;2023-04-27T10:24:40;101950.48;;;10.67;60.33
47811;BME280;33575;52.600;7.318;2023-04-27T10:27:10;101951.91;;;10.56;59.14
47811;BME280;33575;52.600;7.318;2023-04-27T10:29:40;101948.02;;;10.47;58.18
47811;BME280;33575;52.600;7.318;2023-04-27T10:32:11;101945.54;;;10.55;61.53
47811;BME280;33575;52.600;7.318;2023-04-27T10:34:40;101939.91;;;10.71;63.01
47811;BME280;33575;52.600;7.318;2023-04-27T10:37:11;101935.17;;;10.90;63.88
47811;BME280;33575;52.600;7.318;2023-04-27T10:39:46;101933.82;;;11.12;63.86
47811;BME280;33575;52.600;7.318;2023-04-27T10:42:11;101928.08;;;11.33;64.75
47811;BME280;33575;52.600;7.318;2023-04-27T10:44:52;101926.58;;;11.62;64.13
47811;BME280;33575;52.600;7.318;2023-04-27T10:47:14;101928.90;;;11.96;63.23
47811;BME280;33575;52.600;7.318;2023-04-27T10:49:43;101924.41;;;12.18;62.12
47811;BME280;33575;52.600;7.318;2023-04-27T10:52:13;101921.42;;;12.37;63.84
47811;BME280;33575;52.600;7.318;2023-04-27T10:54:45;101919.11;;;12.51;62.69
47811;BME280;33575;52.600;7.318;2023-04-27T10:57:14;101918.45;;;12.62;59.58
47811;BME280;33575;52.600;7.318;2023-04-27T10:59:49;101910.67;;;12.58;54.04
47811;BME280;33575;52.600;7.318;2023-04-27T11:02:16;101908.21;;;12.34;55.43
47811;BME280;33575;52.600;7.318;2023-04-27T11:04:46;101907.17;;;12.34;58.89
47811;BME280;33575;52.600;7.318;2023-04-27T11:07:22;101907.69;;;12.53;60.56
47811;BME280;33575;52.600;7.318;2023-04-27T11:09:48;101905.73;;;12.72;60.27
47811;BME280;33575;52.600;7.318;2023-04-27T11:12:17;101899.54;;;12.79;55.01
47811;BME280;33575;52.600;7.318;2023-04-27T11:14:48;101895.29;;;12.64;53.65
47811;BME280;33575;52.600;7.318;2023-04-27T11:17:27;101895.24;;;12.73;57.65
47811;BME280;33575;52.600;7.318;2023-04-27T11:19:49;101894.10;;;12.63;53.87
47811;BME280;33575;52.600;7.318;2023-04-27T11:22:20;101892.23;;;12.67;57.89
47811;BME280;33575;52.600;7.318;2023-04-27T11:24:51;101892.90;;;12.79;57.78
47811;BME280;33575;52.600;7.318;2023-04-27T11:27:20;101892.42;;;12.90;58.80
47811;BME280;33575;52.600;7.318;2023-04-27T11:29:51;101893.08;;;13.14;55.43
47811;BME280;33575;52.600;7.318;2023-04-27T11:32:22;101896.74;;;13.19;57.72
47811;BME280;33575;52.600;7.318;2023-04-27T11:34:54;101896.63;;;13.26;55.90
47811;BME280;33575;52.600;7.318;2023-04-27T11:37:24;101893.78;;;13.35;57.14
47811;BME280;33575;52.600;7.318;2023-04-27T11:39:53;101892.42;;;13.43;55.37
47811;BME280;33575;52.600;7.318;2023-04-27T11:42:24;101893.56;;;13.49;56.91
47811;BME280;33575;52.600;7.318;2023-04-27T11:44:54;101894.15;;;13.59;55.41
47811;BME280;33575;52.600;7.318;2023-04-27T11:47:26;101896.42;;;13.66;54.90
47811;BME280;33575;52.600;7.318;2023-04-27T11:49:56;101894.91;;;13.66;53.62
47811;BME280;33575;52.600;7.318;2023-04-27T11:52:27;101889.98;;;13.65;55.26
47811;BME280;33575;52.600;7.318;2023-04-27T11:54:55;101890.70;;;13.72;55.18
47811;BME280;33575;52.600;7.318;2023-04-27T11:57:26;101890.12;;;13.68;54.72
47811;BME280;33575;52.600;7.318;2023-04-27T11:59:58;101893.14;;;13.57;56.36
47811;BME280;33575;52.600;7.318;2023-04-27T12:02:27;101894.40;;;13.48;55.25
47811;BME280;33575;52.600;7.318;2023-04-27T12:04:58;101897.48;;;13.41;55.54
47811;BME280;33575;52.600;7.318;2023-04-27T12:07:27;101899.55;;;13.31;55.33
47811;BME280;33575;52.600;7.318;2023-04-27T12:09:59;101890.32;;;13.35;55.02
47811;BME280;33575;52.600;7.318;2023-04-27T12:12:27;101895.36;;;13.19;54.24
47811;BME280;33575;52.600;7.318;2023-04-27T12:14:58;101898.58;;;13.09;56.04
47811;BME280;33575;52.600;7.318;2023-04-27T12:17:28;101896.72;;;13.03;57.05
47811;BME280;33575;52.600;7.318;2023-04-27T12:19:58;101893.91;;;13.06;56.76
47811;BME280;33575;52.600;7.318;2023-04-27T12:22:29;101895.35;;;13.11;56.99
47811;BME280;33575;52.600;7.318;2023-04-27T12:24:59;101892.44;;;13.12;53.29
47811;BME280;33575;52.600;7.318;2023-04-27T12:27:30;101891.19;;;13.23;57.39
47811;BME280;33575;52.600;7.318;2023-04-27T12:30:00;101889.43;;;13.29;57.56
47811;BME280;33575;52.600;7.318;2023-04-27T12:32:30;101886.67;;;13.30;56.64
47811;BME280;33575;52.600;7.318;2023-04-27T12:35:01;101884.74;;;13.40;57.91
47811;BME280;33575;52.600;7.318;2023-04-27T12:37:36;101886.36;;;13.43;54.79
47811;BME280;33575;52.600;7.318;2023-04-27T12:40:02;101879.51;;;13.50;52.52
47811;BME280;33575;52.600;7.318;2023-04-27T12:42:31;101876.98;;;13.46;53.27
47811;BME280;33575;52.600;7.318;2023-04-27T12:45:02;101880.13;;;13.62;56.00
47811;BME280;33575;52.600;7.318;2023-04-27T12:47:35;101879.91;;;13.75;55.34
47811;BME280;33575;52.600;7.318;2023-04-27T12:50:03;101883.77;;;13.89;57.09
47811;BME280;33575;52.600;7.318;2023-04-27T12:52:33;101884.59;;;13.97;55.43
47811;BME280;33575;52.600;7.318;2023-04-27T12:55:04;101884.05;;;14.02;53.28
47811;BME280;33575;52.600;7.318;2023-04-27T12:57:34;101881.64;;;14.01;52.69
47811;BME280;33575;52.600;7.318;2023-04-27T13:00:05;101883.56;;;13.81;50.42
47811;BME280;33575;52.600;7.318;2023-04-27T13:02:35;101879.16;;;13.77;49.57
47811;BME280;33575;52.600;7.318;2023-04-27T13:05:07;101879.61;;;13.86;52.48
47811;BME280;33575;52.600;7.318;2023-04-27T13:07:36;101877.48;;;13.77;50.73
47811;BME280;33575;52.600;7.318;2023-04-27T13:10:07;101875.15;;;13.76;49.18
47811;BME280;33575;52.600;7.318;2023-04-27T13:12:37;101870.13;;;13.71;50.65
47811;BME280;33575;52.600;7.318;2023-04-27T13:15:08;101874.36;;;13.80;52.62
47811;BME280;33575;52.600;7.318;2023-04-27T13:17:37;101877.06;;;13.89;53.16
47811;BME280;33575;52.600;7.318;2023-04-27T13:20:08;101876.79;;;13.93;52.57